Disclaimer

    

CYCD

METAR CYCD 062200Z 06003KT 010V110 30SM FEW043 FEW220 BKN240 12/02 A2996 RMK CU1CI1CI7 CU TR CI TR SLP148=

METAR CYCD 062100Z 11005KT 060V160 30SM FEW043 FEW220 BKN240 12/00 A2995 RMK CU1CI1CI7 CU TR CI TR SLP145=

METAR CYCD 062000Z VRB05KT 30SM FEW120 BKN230 12/02 A2994 RMK AC1CI5 SLP140=

TAF CYCD 061738Z 0618/0704 VRB03KT P6SM FEW040 SCT240 RMK NXT FCST BY 070000Z=

CYVR

METAR CYVR 062200Z 26006KT 20SM FEW024 FEW130 BKN260 10/04 A2998 RMK CU1AC1CI7 CU TR AC TR SLP152=

METAR CYVR 062100Z 25005KT 210V290 20SM FEW024 FEW130 BKN230 10/04 A2997 RMK CU1AC1CS7 CU TR AC TR SLP149=

METAR CYVR 062000Z 24007KT 20SM FEW024 FEW160 BKN230 09/03 A2995 RMK CU1AC1CS7 CU TR AC TR SLP144=

TAF CYVR 062038Z 0621/0724 27008KT P6SM FEW030 SCT220 BECMG 0702/0704 VRB03KT
FM070600 VRB03KT P6SM SCT050 BKN160
FM071200 32008KT P6SM SCT025 BKN140
FM072100 28010KT P6SM SKC RMK NXT FCST BY 070000Z=

CYXX

METAR CYXX 062200Z 21009KT 25SM FEW040 SCT230 BKN270 13/01 A2996 RMK CU1CI2CS4 SLP147=

METAR CYXX 062100Z 24007KT 30SM FEW040 OVC230 12/03 A2995 RMK CU1CS7 SLP144=

METAR CYXX 062000Z 24006KT 200V270 30SM FEW040 FEW220 BKN260 11/02 A2994 RMK CU1CI1CS7 CU TR CI TR SLP141=

TAF CYXX 061738Z 0618/0718 VRB03KT P6SM FEW050 SCT220 BECMG 0619/0621 22010KT
FM070600 19006KT P6SM FEW020 SCT040 BKN170
FM071200 19008KT P6SM SCT025 BKN050 TEMPO 0712/0718 BKN020 RMK NXT FCST BY 070000Z=

Supplemental information

Lower mainland ATIS: 1-877-517-2847

CZBB (Boundary Bay) current winds

Upper winds (Vancouver)

Data fromValid at300060009000
06120006180029102914-043121-05
06120007000027062818-023026-04
06120007120030162919-023034-04

NOTAMs

On October 10, 2019, NAV CANADA changed to the ICAO NOTAM format. They are now available only through Collaborative Flight Planning Services (CFPS) (plan.navcanada.ca). I'm working to update this site to pull in the relevant NOTAMs in the new format.